Time;durP1;ratioP1;P1;durP2;ratioP2;P2;SDS_P1;SDS_P2;PMS_P1;PMS_P2;Temp;Humidity;BMP_temperature;BMP_pressure;BME280_temperature;BME280_humidity;BME280_pressure;Samples;Min_cycle;Max_cycle;Signal;HPM_P1;HPM_P2
2023/08/13 00:02:02;;;;;;;14.38;3.28;;;;;;;21.82;58.23;101267.78;5055990;28;20052;-68
2023/08/13 00:04:30;;;;;;;13.63;3.13;;;;;;;21.93;57.82;101265.16;5056223;28;20048;-68
2023/08/13 00:06:57;;;;;;;10.70;3.15;;;;;;;21.88;57.17;101265.47;5054565;28;20512;-68
2023/08/13 00:09:24;;;;;;;9.57;2.90;;;;;;;21.72;58.08;101273.19;5038140;28;20441;-68
2023/08/13 00:11:53;;;;;;;15.02;2.95;;;;;;;21.33;59.58;101268.88;5042230;28;20044;-68
2023/08/13 00:14:20;;;;;;;13.98;3.05;;;;;;;21.27;59.71;101259.97;5054124;28;20049;-67
2023/08/13 00:16:47;;;;;;;11.52;2.70;;;;;;;20.99;60.74;101260.25;5055919;28;20048;-68
2023/08/13 00:19:15;;;;;;;13.73;3.22;;;;;;;21.12;60.64;101260.91;5054957;28;20052;-68
2023/08/13 00:21:42;;;;;;;12.27;3.13;;;;;;;21.15;60.90;101254.53;5050577;28;20045;-68
2023/08/13 00:24:29;;;;;;;13.77;3.03;;;;;;;21.39;60.40;101251.41;5056110;28;20052;-68
2023/08/13 00:26:57;;;;;;;9.90;2.70;;;;;;;21.33;60.53;101258.50;5052434;28;20054;-68
2023/08/13 00:29:24;;;;;;;13.80;2.65;;;;;;;21.37;60.83;101256.56;5056789;28;20041;-67
2023/08/13 00:31:54;;;;;;;10.13;2.65;;;;;;;21.50;60.13;101241.16;5073844;28;20061;-68
2023/08/13 00:34:22;;;;;;;13.73;3.20;;;;;;;21.32;60.29;101244.84;5075280;28;20056;-68
2023/08/13 00:36:49;;;;;;;13.65;2.85;;;;;;;21.41;60.60;101237.00;5054424;28;20048;-67
2023/08/13 00:39:17;;;;;;;14.27;2.75;;;;;;;21.44;60.43;101241.88;5054078;28;20552;-67
2023/08/13 00:41:44;;;;;;;9.65;2.70;;;;;;;21.46;60.13;101242.31;5053837;28;20060;-68
2023/08/13 00:44:12;;;;;;;13.40;3.08;;;;;;;21.44;60.24;101242.69;5046342;28;20045;-68
2023/08/13 00:46:40;;;;;;;13.13;3.60;;;;;;;21.34;60.45;101234.88;5044107;28;20044;-68
2023/08/13 00:49:08;;;;;;;12.93;2.92;;;;;;;21.04;61.63;101239.53;5037069;28;20071;-68
2023/08/13 00:51:40;;;;;;;13.00;3.40;;;;;;;21.28;60.77;101236.38;5054844;28;20049;-68
2023/08/13 00:54:08;;;;;;;12.13;3.00;;;;;;;21.14;60.90;101236.94;5055090;28;20045;-67
2023/08/13 00:56:36;;;;;;;16.98;3.13;;;;;;;20.80;61.80;101229.41;5054680;28;20871;-69
2023/08/13 00:59:04;;;;;;;17.77;3.28;;;;;;;20.72;62.74;101232.47;5036479;28;20056;-68
2023/08/13 01:01:33;;;;;;;13.60;3.00;;;;;;;20.77;62.45;101237.75;5037069;28;20456;-68
2023/08/13 01:04:00;;;;;;;13.48;2.72;;;;;;;20.73;63.04;101234.88;5031868;28;20563;-68
2023/08/13 01:06:46;;;;;;;15.13;3.50;;;;;;;20.93;62.67;101228.09;5054692;28;20416;-67
2023/08/13 01:09:52;;;;;;;12.15;3.35;;;;;;;21.02;62.09;101228.72;5053557;28;20056;-70
2023/08/13 01:12:46;;;;;;;10.07;2.75;;;;;;;20.98;62.04;101232.56;5054622;28;20052;-67
2023/08/13 01:15:17;;;;;;;11.75;3.08;;;;;;;20.76;63.09;101230.53;5052643;28;20120;-68
2023/08/13 01:17:48;;;;;;;13.25;2.92;;;;;;;20.91;62.55;101235.25;5047599;28;20045;-67
2023/08/13 01:20:16;;;;;;;12.73;2.90;;;;;;;20.90;62.91;101233.63;5036256;28;20060;-69
2023/08/13 01:22:46;;;;;;;;;;;;;;;21.06;62.42;101239.97;5053509;28;20056;-68
2023/08/13 01:25:14;;;;;;;10.98;2.60;;;;;;;21.01;62.19;101234.66;5054256;28;19932;-67
2023/08/13 01:27:53;;;;;;;9.82;2.67;;;;;;;21.00;62.45;101231.06;5054334;28;20045;-68
2023/08/13 01:30:28;;;;;;;14.90;2.78;;;;;;;20.97;62.92;101234.56;5065468;28;20383;-68
2023/08/13 01:33:02;;;;;;;16.20;2.85;;;;;;;21.00;62.83;101230.25;5062156;28;20662;-68
2023/08/13 01:35:33;;;;;;;13.45;3.40;;;;;;;21.05;62.97;101221.53;5050835;28;20057;-68
2023/08/13 01:38:02;;;;;;;12.05;2.97;;;;;;;21.16;62.23;101223.38;5036572;28;20063;-68
2023/08/13 01:40:29;;;;;;;11.52;3.00;;;;;;;21.00;62.30;101228.25;5052084;28;20057;-68
2023/08/13 01:42:57;;;;;;;16.27;2.78;;;;;;;20.95;63.19;101224.91;5054074;28;20048;-69
2023/08/13 01:45:24;;;;;;;11.05;2.88;;;;;;;20.99;62.81;101225.84;5052837;28;20045;-66
2023/08/13 01:47:52;;;;;;;17.08;3.17;;;;;;;21.03;62.61;101218.28;5052462;28;20424;-70
2023/08/13 01:50:21;;;;;;;13.15;2.83;;;;;;;20.98;62.90;101218.56;5031831;28;20049;-67
2023/08/13 01:52:48;;;;;;;12.57;3.28;;;;;;;20.81;63.38;101219.84;5035951;28;20075;-67
2023/08/13 01:55:16;;;;;;;13.00;2.75;;;;;;;20.78;63.60;101226.19;5052272;28;20060;-67
2023/08/13 01:57:44;;;;;;;17.58;3.00;;;;;;;21.02;62.98;101222.28;5025791;28;20045;-67
2023/08/13 02:00:12;;;;;;;11.23;2.60;;;;;;;20.88;63.49;101221.97;5063286;28;20049;-67
2023/08/13 02:02:40;;;;;;;11.20;2.72;;;;;;;20.87;63.34;101225.97;5051992;28;20052;-67
2023/08/13 02:05:08;;;;;;;11.43;3.25;;;;;;;20.92;63.77;101222.88;5053517;28;20053;-68
2023/08/13 02:07:35;;;;;;;10.65;3.00;;;;;;;20.84;63.57;101223.91;5058424;28;20048;-67
2023/08/13 02:10:03;;;;;;;14.00;3.58;;;;;;;20.75;64.10;101221.31;5053625;28;20053;-67
2023/08/13 02:12:31;;;;;;;12.00;2.80;;;;;;;20.72;64.30;101224.88;5052558;28;20049;-68
2023/08/13 02:14:58;;;;;;;15.07;3.55;;;;;;;20.67;64.63;101227.97;5050264;28;20425;-68
2023/08/13 02:17:26;;;;;;;13.68;2.97;;;;;;;20.74;64.20;101232.91;5031542;28;20045;-68
2023/08/13 02:19:54;;;;;;;11.50;3.25;;;;;;;20.77;64.41;101238.56;5016456;28;20069;-68
2023/08/13 02:22:22;;;;;;;15.25;3.53;;;;;;;20.82;63.85;101235.47;5045748;28;20077;-67
2023/08/13 02:24:50;;;;;;;13.38;3.20;;;;;;;20.80;64.30;101242.63;5055407;28;20041;-69
2023/08/13 02:27:17;;;;;;;18.55;3.22;;;;;;;20.67;64.63;101235.56;5053622;28;20049;-67
2023/08/13 02:29:44;;;;;;;16.30;2.90;;;;;;;20.63;64.78;101234.66;5060007;28;20064;-67
2023/08/13 02:32:12;;;;;;;18.50;2.65;;;;;;;20.75;64.71;101226.09;5072338;28;20515;-68
2023/08/13 02:34:44;;;;;;;14.27;3.22;;;;;;;20.27;65.57;101224.72;5070518;28;20068;-67
2023/08/13 02:37:11;;;;;;;16.75;3.47;;;;;;;20.36;66.45;101224.50;5052850;28;20045;-67
2023/08/13 02:39:39;;;;;;;12.27;3.45;;;;;;;20.32;66.13;101220.81;5052092;28;20055;-68
2023/08/13 02:42:06;;;;;;;16.67;3.63;;;;;;;20.12;67.17;101220.75;5047495;28;20339;-68
2023/08/13 02:44:33;;;;;;;14.32;3.22;;;;;;;20.20;67.29;101230.16;5053271;28;20064;-68
2023/08/13 02:47:01;;;;;;;16.92;3.22;;;;;;;20.38;66.84;101219.34;5051538;28;20060;-68
2023/08/13 02:49:28;;;;;;;16.08;3.35;;;;;;;20.31;66.80;101216.41;5053124;28;20052;-68
2023/08/13 02:51:56;;;;;;;14.32;3.58;;;;;;;20.05;67.91;101220.59;5051783;28;20048;-67
2023/08/13 02:54:23;;;;;;;13.90;3.08;;;;;;;19.93;67.96;101215.13;5055155;28;20412;-68
2023/08/13 02:56:50;;;;;;;14.82;3.45;;;;;;;20.04;68.12;101206.97;5055694;28;20429;-68
2023/08/13 02:59:18;;;;;;;14.48;3.10;;;;;;;20.02;68.52;101203.72;5046373;28;20460;-68
2023/08/13 03:01:45;;;;;;;18.48;3.53;;;;;;;20.06;67.95;101199.84;5037186;28;20135;-68
2023/08/13 03:04:13;;;;;;;13.52;2.85;;;;;;;19.99;68.67;101210.06;5037420;28;20096;-68
2023/08/13 03:06:40;;;;;;;11.77;2.75;;;;;;;19.87;69.01;101205.41;5035777;28;20052;-69
2023/08/13 03:09:09;;;;;;;13.95;3.28;;;;;;;19.91;69.04;101209.06;5049010;28;20056;-67
2023/08/13 03:11:37;;;;;;;14.63;3.38;;;;;;;20.01;69.09;101190.94;5055409;28;20060;-67
2023/08/13 03:14:04;;;;;;;16.13;3.55;;;;;;;20.05;68.81;101194.59;5055804;28;20057;-67
2023/08/13 03:16:31;;;;;;;21.40;3.40;;;;;;;20.08;68.96;101200.28;5050920;28;20051;-68
2023/08/13 03:18:59;;;;;;;15.98;3.08;;;;;;;20.02;69.54;101192.53;5055324;28;20054;-67
2023/08/13 03:21:26;;;;;;;11.32;2.53;;;;;;;20.16;68.70;101195.69;5038907;28;20064;-67
2023/08/13 03:23:54;;;;;;;13.00;3.25;;;;;;;20.09;69.30;101198.28;5055793;28;20091;-68
2023/08/13 03:26:21;;;;;;;16.23;3.38;;;;;;;19.94;69.76;101191.59;5054948;28;20056;-68
2023/08/13 03:28:49;;;;;;;14.45;3.35;;;;;;;19.98;69.71;101200.84;5056589;28;20511;-68
2023/08/13 03:31:19;;;;;;;;;;;;;;;20.00;69.67;101204.09;5075044;28;20053;-67
2023/08/13 03:33:51;;;;;;;16.33;2.88;;;;;;;20.13;69.23;101210.38;5054560;28;19921;-67
2023/08/13 03:36:19;;;;;;;15.73;4.10;;;;;;;20.08;69.17;101207.88;5039376;28;20049;-68
2023/08/13 03:38:47;;;;;;;20.30;3.65;;;;;;;19.93;70.26;101201.13;5035479;28;20061;-68
2023/08/13 03:41:15;;;;;;;14.35;3.17;;;;;;;19.93;70.46;101205.91;5034489;28;20069;-68
2023/08/13 03:43:42;;;;;;;14.32;3.08;;;;;;;19.86;70.67;101205.75;5042351;28;20048;-67
2023/08/13 03:46:10;;;;;;;17.17;3.40;;;;;;;19.79;70.76;101209.19;5055111;28;20515;-67
2023/08/13 03:48:38;;;;;;;20.33;3.45;;;;;;;19.68;71.06;101210.91;5055021;28;20049;-68
2023/08/13 03:51:05;;;;;;;16.95;3.38;;;;;;;19.55;71.96;101195.44;5051762;28;20075;-68
2023/08/13 03:53:33;;;;;;;13.93;2.78;;;;;;;19.55;72.34;101198.22;5034790;28;20057;-67
2023/08/13 03:56:00;;;;;;;15.55;3.53;;;;;;;19.58;72.39;101191.91;5035211;28;20053;-67
2023/08/13 03:58:30;;;;;;;13.95;3.05;;;;;;;19.76;71.60;101195.13;5034912;28;20056;-67
2023/08/13 04:01:04;;;;;;;12.77;3.20;;;;;;;19.79;71.48;101206.41;5034309;28;20065;-67
2023/08/13 04:03:31;;;;;;;16.98;3.58;;;;;;;19.86;71.07;101200.97;5033540;28;20049;-67
2023/08/13 04:06:00;;;;;;;14.60;3.35;;;;;;;19.90;71.27;101189.88;5035766;28;20060;-67
2023/08/13 04:08:27;;;;;;;19.70;3.33;;;;;;;19.74;72.10;101197.47;5038522;28;20050;-67
2023/08/13 04:10:54;;;;;;;15.65;3.08;;;;;;;19.78;71.88;101199.19;5035900;28;20076;-67
2023/08/13 04:13:23;;;;;;;17.17;3.03;;;;;;;19.70;71.98;101204.97;5035813;28;20061;-67
2023/08/13 04:15:50;;;;;;;14.15;3.05;;;;;;;19.67;72.31;101200.09;5035783;28;20049;-68
2023/08/13 04:18:18;;;;;;;19.25;4.03;;;;;;;19.75;72.28;101205.50;5018367;28;20410;-68
2023/08/13 04:20:45;;;;;;;19.75;3.70;;;;;;;19.77;72.34;101208.75;5041657;28;20587;-68
2023/08/13 04:23:12;;;;;;;11.77;2.85;;;;;;;19.99;71.40;101205.28;5054591;28;20052;-68
2023/08/13 04:25:40;;;;;;;16.67;3.15;;;;;;;19.84;71.98;101208.13;5050471;28;20053;-67
2023/08/13 04:28:08;;;;;;;18.88;3.55;;;;;;;19.61;72.04;101207.97;5054202;28;20037;-67
2023/08/13 04:30:39;;;;;;;19.02;3.17;;;;;;;19.61;73.31;101204.34;5067763;28;20075;-69
2023/08/13 04:33:06;;;;;;;18.52;3.63;;;;;;;19.49;73.06;101212.84;5074274;28;20067;-68
2023/08/13 04:35:35;;;;;;;12.57;3.20;;;;;;;19.59;72.97;101206.69;5030753;28;20056;-67
2023/08/13 04:38:03;;;;;;;15.20;2.65;;;;;;;19.63;73.30;101210.41;5021263;28;20048;-69
2023/08/13 04:40:37;;;;;;;14.00;3.05;;;;;;;19.42;73.60;101207.88;5052587;28;20075;-67
2023/08/13 04:43:05;;;;;;;12.50;2.97;;;;;;;19.54;73.32;101209.78;5055267;28;20488;-67
2023/08/13 04:45:32;;;;;;;18.90;3.58;;;;;;;19.62;73.07;101211.56;5053596;28;20053;-67
2023/08/13 04:48:00;;;;;;;16.38;3.17;;;;;;;19.50;73.16;101209.69;5051078;28;20501;-68
2023/08/13 04:50:28;;;;;;;14.68;3.03;;;;;;;19.52;73.09;101201.75;5053643;28;20503;-68
2023/08/13 04:52:55;;;;;;;18.02;3.40;;;;;;;19.40;73.86;101201.84;5054385;28;20037;-68
2023/08/13 04:55:23;;;;;;;17.75;3.67;;;;;;;19.23;74.35;101210.53;5053438;28;20044;-67
2023/08/13 04:57:51;;;;;;;14.88;3.70;;;;;;;19.28;74.26;101206.69;5038618;28;20199;-67
2023/08/13 05:00:18;;;;;;;16.40;3.38;;;;;;;19.43;73.66;101212.31;5033425;28;20049;-67
2023/08/13 05:02:46;;;;;;;19.23;3.80;;;;;;;19.41;73.74;101211.84;5034131;28;20053;-68
2023/08/13 05:05:14;;;;;;;14.73;3.30;;;;;;;19.47;73.76;101212.38;5035180;28;20052;-67
2023/08/13 05:07:42;;;;;;;13.68;2.85;;;;;;;19.49;73.71;101204.47;5033739;28;20046;-66
2023/08/13 05:10:10;;;;;;;17.27;3.50;;;;;;;19.41;74.21;101211.84;5017773;28;20049;-67
2023/08/13 05:12:37;;;;;;;12.93;2.97;;;;;;;19.45;74.75;101207.16;5033629;28;20053;-67
2023/08/13 05:15:05;;;;;;;19.85;3.50;;;;;;;19.49;74.42;101208.03;5044133;28;20428;-67
2023/08/13 05:17:34;;;;;;;17.67;3.58;;;;;;;19.57;74.20;101209.03;5036546;28;20060;-67
2023/08/13 05:20:02;;;;;;;16.25;3.40;;;;;;;19.50;74.59;101200.47;5053232;28;20052;-67
2023/08/13 05:22:30;;;;;;;14.60;3.17;;;;;;;19.49;74.09;101213.63;5054461;28;20660;-68
2023/08/13 05:24:57;;;;;;;21.52;3.85;;;;;;;19.31;75.15;101217.97;5053374;28;20052;-69
2023/08/13 05:27:24;;;;;;;22.10;4.13;;;;;;;19.45;75.17;101218.34;5036261;28;20523;-67
2023/08/13 05:29:52;;;;;;;18.25;3.40;;;;;;;19.35;75.18;101202.13;5049361;28;20049;-67
2023/08/13 05:32:22;;;;;;;15.98;3.20;;;;;;;19.33;75.39;101207.25;5052771;28;20052;-67
2023/08/13 05:34:49;;;;;;;;;;;;;;;19.27;75.91;101205.88;5054786;28;20044;-67
2023/08/13 05:37:17;;;;;;;20.63;3.28;;;;;;;19.17;75.98;101206.41;5052103;28;19920;-67
2023/08/13 05:39:45;;;;;;;19.58;3.40;;;;;;;19.20;76.66;101202.88;5036757;28;20045;-68
2023/08/13 05:42:14;;;;;;;15.20;3.05;;;;;;;19.13;76.90;101215.84;5052372;28;20416;-68
2023/08/13 05:44:42;;;;;;;19.27;2.92;;;;;;;19.23;76.47;101218.13;5052272;28;20484;-68
2023/08/13 05:47:11;;;;;;;15.48;3.47;;;;;;;19.34;76.13;101222.84;5049338;28;20041;-67
2023/08/13 05:49:41;;;;;;;13.48;2.92;;;;;;;19.37;75.48;101222.09;5036185;28;20044;-67
2023/08/13 05:52:08;;;;;;;18.98;3.83;;;;;;;19.39;75.45;101221.75;5052663;28;20056;-67
2023/08/13 05:54:36;;;;;;;16.38;3.33;;;;;;;19.36;76.22;101219.69;5054285;28;20410;-66
2023/08/13 05:57:03;;;;;;;15.70;3.15;;;;;;;19.23;76.06;101221.72;5053753;28;20056;-68
2023/08/13 05:59:33;;;;;;;17.95;3.35;;;;;;;19.09;76.88;101224.13;5053872;28;20048;-68
2023/08/13 06:02:00;;;;;;;16.17;3.15;;;;;;;19.19;76.83;101223.63;5053718;28;20148;-68
2023/08/13 06:04:27;;;;;;;19.25;3.75;;;;;;;19.49;75.24;101226.81;5048096;28;20060;-68
2023/08/13 06:06:55;;;;;;;19.48;3.45;;;;;;;19.37;75.67;101224.13;5032582;28;20080;-68
2023/08/13 06:09:22;;;;;;;17.17;3.33;;;;;;;19.50;75.40;101229.25;5033529;28;20053;-69
2023/08/13 06:11:49;;;;;;;17.73;3.20;;;;;;;19.87;73.81;101229.75;5032450;28;20053;-68
2023/08/13 06:14:17;;;;;;;15.82;2.70;;;;;;;19.49;75.00;101224.81;5032470;28;20462;-68
2023/08/13 06:16:44;;;;;;;17.58;3.70;;;;;;;19.21;76.06;101232.47;5033409;28;20053;-68
2023/08/13 06:19:15;;;;;;;17.23;3.28;;;;;;;19.15;77.30;101233.88;5033010;28;20064;-68
2023/08/13 06:21:43;;;;;;;19.70;3.30;;;;;;;19.25;76.77;101235.34;5049106;28;20049;-67
2023/08/13 06:24:11;;;;;;;16.85;3.30;;;;;;;19.26;76.48;101226.59;5061297;28;20051;-69
2023/08/13 06:26:38;;;;;;;16.88;3.13;;;;;;;19.36;76.62;101230.84;5051285;28;20057;-67
2023/08/13 06:29:05;;;;;;;16.27;2.88;;;;;;;19.43;76.17;101231.84;5054107;28;20505;-67
2023/08/13 06:31:35;;;;;;;15.13;3.88;;;;;;;19.40;76.10;101227.00;5050356;28;20061;-68
2023/08/13 06:34:10;;;;;;;16.73;3.20;;;;;;;19.24;76.45;101222.53;5047794;28;20412;-68
2023/08/13 06:36:41;;;;;;;20.88;3.45;;;;;;;19.28;76.42;101235.44;5035600;28;20045;-68
2023/08/13 06:39:08;;;;;;;16.42;3.58;;;;;;;19.34;76.54;101233.19;5049201;28;20052;-69
2023/08/13 06:41:36;;;;;;;12.63;2.85;;;;;;;19.39;76.10;101235.72;5053016;28;20069;-68
2023/08/13 06:44:05;;;;;;;15.90;3.33;;;;;;;19.51;76.16;101225.25;5051920;28;20421;-68
2023/08/13 06:46:33;;;;;;;16.83;3.38;;;;;;;19.61;75.34;101233.13;5051691;28;20045;-68
2023/08/13 06:49:00;;;;;;;18.40;2.90;;;;;;;19.66;74.92;101232.03;5053127;28;20053;-69
2023/08/13 06:51:29;;;;;;;14.43;3.42;;;;;;;19.92;73.42;101235.88;5053146;28;20055;-67
2023/08/13 06:53:59;;;;;;;13.57;3.20;;;;;;;19.70;74.58;101242.09;5048627;28;20393;-66
2023/08/13 06:56:27;;;;;;;15.95;2.60;;;;;;;19.67;74.93;101242.03;5052124;28;20045;-67
2023/08/13 06:58:54;;;;;;;12.32;2.75;;;;;;;19.92;73.67;101233.09;5035242;28;20041;-68
2023/08/13 07:01:21;;;;;;;13.32;3.15;;;;;;;20.00;72.84;101240.44;5051555;28;20056;-68
2023/08/13 07:03:49;;;;;;;15.88;3.13;;;;;;;19.71;73.44;101235.38;5053023;28;20056;-67
2023/08/13 07:06:16;;;;;;;16.98;3.38;;;;;;;19.86;73.66;101233.72;5051907;28;20053;-67
2023/08/13 07:08:43;;;;;;;14.77;2.53;;;;;;;19.85;73.82;101238.50;5051476;28;20112;-68
2023/08/13 07:11:11;;;;;;;13.40;2.97;;;;;;;19.89;73.32;101246.97;5049163;28;20049;-68
2023/08/13 07:13:38;;;;;;;14.80;3.10;;;;;;;19.73;73.78;101247.00;5033698;28;20049;-68
2023/08/13 07:16:09;;;;;;;19.60;3.45;;;;;;;19.98;73.47;101241.97;5015469;28;20057;-68
2023/08/13 07:18:37;;;;;;;13.77;3.03;;;;;;;19.97;72.98;101235.59;5032976;28;20058;-67
2023/08/13 07:21:06;;;;;;;11.38;2.75;;;;;;;19.98;72.81;101240.00;5041084;28;20041;-67
2023/08/13 07:23:33;;;;;;;18.25;3.13;;;;;;;20.17;72.21;101242.88;5052876;28;20052;-68
2023/08/13 07:26:00;;;;;;;15.45;3.03;;;;;;;20.30;71.46;101240.75;5053084;28;20060;-68
2023/08/13 07:28:29;;;;;;;13.95;3.15;;;;;;;20.35;71.59;101239.66;5033553;28;20045;-67
2023/08/13 07:30:58;;;;;;;15.07;2.58;;;;;;;20.38;70.85;101244.53;5082970;28;20067;-67
2023/08/13 07:33:25;;;;;;;16.37;2.90;;;;;;;20.38;70.66;101239.72;5071724;28;20057;-67
2023/08/13 07:35:52;;;;;;;14.40;3.08;;;;;;;20.40;70.73;101240.19;5060022;28;20124;-68
2023/08/13 07:38:20;;;;;;;13.15;2.80;;;;;;;20.58;70.51;101238.56;5051035;28;20060;-69
2023/08/13 07:40:47;;;;;;;12.98;2.85;;;;;;;20.53;69.56;101235.25;5055776;28;20052;-68
2023/08/13 07:43:15;;;;;;;17.27;2.95;;;;;;;20.42;69.71;101239.81;5057114;28;20052;-68
2023/08/13 07:45:42;;;;;;;15.98;3.55;;;;;;;20.71;68.73;101244.84;5053538;28;20052;-68
2023/08/13 07:48:09;;;;;;;13.52;2.83;;;;;;;20.88;68.45;101234.00;5070504;28;20044;-68
2023/08/13 07:50:37;;;;;;;12.40;2.78;;;;;;;21.14;66.95;101231.34;5068515;28;20052;-68
2023/08/13 07:53:04;;;;;;;11.32;3.00;;;;;;;21.26;66.50;101238.75;5038806;28;20048;-67
2023/08/13 07:55:32;;;;;;;13.80;2.95;;;;;;;21.15;65.98;101234.94;5056391;28;20566;-68
2023/08/13 07:57:59;;;;;;;12.02;2.70;;;;;;;21.00;66.67;101233.03;5038942;28;20049;-68
2023/08/13 08:00:26;;;;;;;13.43;2.92;;;;;;;21.20;65.15;101229.00;5035874;28;20484;-67
2023/08/13 08:02:54;;;;;;;13.73;3.15;;;;;;;21.39;65.32;101230.97;5035095;28;20069;-68
2023/08/13 08:05:21;;;;;;;12.77;2.80;;;;;;;21.19;65.01;101225.41;5050998;28;20064;-67
2023/08/13 08:07:49;;;;;;;14.75;2.47;;;;;;;21.14;65.16;101236.94;5054947;28;20064;-69
2023/08/13 08:10:16;;;;;;;12.70;2.80;;;;;;;21.05;65.13;101225.16;5055738;28;20064;-68
2023/08/13 08:12:44;;;;;;;16.75;3.00;;;;;;;21.18;64.68;101232.19;5055008;28;20076;-67
2023/08/13 08:15:11;;;;;;;16.95;2.90;;;;;;;21.50;63.67;101229.97;5055753;28;20059;-68
2023/08/13 08:17:39;;;;;;;13.43;2.72;;;;;;;21.61;62.94;101230.97;5055693;28;20048;-68
2023/08/13 08:20:07;;;;;;;13.43;3.13;;;;;;;21.64;63.33;101224.59;5052685;28;20046;-68
2023/08/13 08:22:34;;;;;;;11.77;3.10;;;;;;;21.71;63.00;101232.28;5055797;28;20276;-68
2023/08/13 08:25:09;;;;;;;15.25;2.50;;;;;;;21.40;63.33;101226.97;5063590;28;20053;-68
2023/08/13 08:27:37;;;;;;;14.73;3.38;;;;;;;21.59;63.17;101236.13;5054252;28;20075;-67
2023/08/13 08:30:05;;;;;;;14.93;3.17;;;;;;;21.50;62.63;101231.94;5046268;28;20052;-68
2023/08/13 08:32:32;;;;;;;16.75;3.05;;;;;;;21.35;63.47;101221.69;5070467;28;20044;-67
2023/08/13 08:34:59;;;;;;;13.80;2.58;;;;;;;21.38;63.90;101229.34;5055360;28;20041;-68
2023/08/13 08:37:27;;;;;;;12.05;2.75;;;;;;;21.55;64.08;101232.44;5051198;28;20045;-68
2023/08/13 08:39:55;;;;;;;11.25;2.35;;;;;;;21.70;63.38;101227.88;5055538;28;20052;-67
2023/08/13 08:42:23;;;;;;;11.38;2.53;;;;;;;22.19;61.65;101220.25;5036977;28;20056;-68
2023/08/13 08:44:50;;;;;;;13.95;2.83;;;;;;;22.15;61.28;101219.41;5037449;28;20057;-69
2023/08/13 08:47:19;;;;;;;13.60;2.55;;;;;;;22.23;61.11;101218.28;5062301;28;20044;-68
2023/08/13 08:49:47;;;;;;;11.70;2.28;;;;;;;22.13;60.21;101216.97;5075012;28;20041;-69
2023/08/13 08:52:16;;;;;;;11.07;2.67;;;;;;;22.25;59.29;101216.75;5054159;28;20049;-68
2023/08/13 08:54:45;;;;;;;11.18;1.67;;;;;;;22.24;58.15;101211.50;5050995;28;20041;-66
2023/08/13 08:57:13;;;;;;;12.23;2.40;;;;;;;22.05;58.52;101212.47;5034177;28;20053;-66
2023/08/13 08:59:40;;;;;;;11.15;2.72;;;;;;;22.07;59.14;101209.28;5034153;28;20444;-68
2023/08/13 09:02:09;;;;;;;12.65;2.30;;;;;;;22.08;59.13;101208.06;5033760;28;20088;-67
2023/08/13 09:04:36;;;;;;;13.15;2.53;;;;;;;22.53;58.16;101213.50;5049981;28;20060;-67
2023/08/13 09:07:03;;;;;;;9.88;2.08;;;;;;;22.52;58.11;101211.06;5035139;28;20056;-67
2023/08/13 09:09:31;;;;;;;13.32;2.70;;;;;;;22.32;58.66;101208.41;5034732;28;20053;-68
2023/08/13 09:11:59;;;;;;;10.32;2.75;;;;;;;22.38;58.87;101210.88;5046742;28;20590;-68
2023/08/13 09:14:27;;;;;;;11.30;2.58;;;;;;;22.47;58.35;101222.63;5043703;28;20420;-68
2023/08/13 09:16:56;;;;;;;10.55;2.30;;;;;;;22.44;57.80;101218.59;5034537;28;20057;-68
2023/08/13 09:19:25;;;;;;;11.50;2.53;;;;;;;22.75;57.25;101220.22;5034960;28;20050;-68
2023/08/13 09:22:00;;;;;;;14.13;2.43;;;;;;;22.59;57.28;101223.25;5050814;28;20040;-68
2023/08/13 09:24:32;;;;;;;9.15;2.28;;;;;;;22.57;57.08;101216.38;5062343;28;20059;-68
2023/08/13 09:27:00;;;;;;;8.65;1.83;;;;;;;22.69;56.74;101214.13;5049400;28;20058;-67
2023/08/13 09:29:31;;;;;;;11.98;2.75;;;;;;;22.65;56.72;101218.88;5057475;28;20048;-68
2023/08/13 09:32:00;;;;;;;9.52;2.33;;;;;;;22.69;56.51;101216.13;5067474;28;20072;-68
2023/08/13 09:34:29;;;;;;;12.97;2.80;;;;;;;22.81;56.18;101208.25;5054225;28;20048;-68
2023/08/13 09:36:57;;;;;;;12.82;2.65;;;;;;;22.89;55.62;101212.75;5054714;28;20511;-68
2023/08/13 09:39:32;;;;;;;10.65;2.22;;;;;;;23.02;54.83;101210.47;5053811;28;20048;-68
2023/08/13 09:42:02;;;;;;;10.20;2.22;;;;;;;23.00;54.47;101205.25;5052778;28;20061;-69
2023/08/13 09:44:30;;;;;;;13.02;2.70;;;;;;;23.05;54.33;101201.25;5048311;28;20053;-68
2023/08/13 09:47:03;;;;;;;9.07;1.90;;;;;;;22.75;54.65;101201.34;5032658;28;20057;-69
2023/08/13 09:49:33;;;;;;;9.13;2.33;;;;;;;22.78;55.26;101199.78;5034017;28;20053;-68
2023/08/13 09:52:08;;;;;;;9.73;2.28;;;;;;;22.79;54.97;101199.38;5051089;28;20056;-67
2023/08/13 09:54:47;;;;;;;9.85;2.30;;;;;;;22.68;55.47;101189.25;5052732;28;20053;-68
2023/08/13 09:57:16;;;;;;;11.35;3.00;;;;;;;22.83;55.57;101186.19;5054325;28;20052;-69
2023/08/13 09:59:44;;;;;;;11.07;3.13;;;;;;;22.93;55.46;101190.31;5052716;28;20040;-68
2023/08/13 10:02:14;;;;;;;9.98;2.17;;;;;;;23.01;54.59;101184.38;5047756;28;20048;-68
2023/08/13 10:04:42;;;;;;;8.35;1.98;;;;;;;23.23;53.69;101185.38;5054124;28;20080;-68
2023/08/13 10:07:09;;;;;;;10.00;2.38;;;;;;;23.53;52.80;101188.09;5052571;28;20539;-68
2023/08/13 10:09:37;;;;;;;8.93;1.70;;;;;;;23.29;52.97;101181.06;5052052;28;20586;-68
2023/08/13 10:12:09;;;;;;;10.68;1.70;;;;;;;23.40;52.94;101187.59;5054261;28;20053;-69
2023/08/13 10:14:37;;;;;;;8.88;2.10;;;;;;;23.56;52.78;101182.50;5035464;28;20057;-68
2023/08/13 10:17:06;;;;;;;7.25;2.13;;;;;;;23.70;51.47;101187.41;5050371;28;20045;-67
2023/08/13 10:19:37;;;;;;;7.60;1.50;;;;;;;23.79;51.15;101190.69;5052407;28;20404;-68
2023/08/13 10:22:04;;;;;;;;;;;;;;;23.71;50.87;101186.22;5054744;28;20287;-68
2023/08/13 10:24:31;;;;;;;7.72;1.67;;;;;;;23.68;51.40;101187.81;5050592;28;19921;-68
2023/08/13 10:26:59;;;;;;;6.45;1.85;;;;;;;23.63;50.91;101179.75;5049523;28;20056;-67
2023/08/13 10:29:37;;;;;;;9.57;2.05;;;;;;;23.62;51.09;101188.56;5056082;28;20048;-67
2023/08/13 10:32:12;;;;;;;7.47;1.83;;;;;;;24.16;49.23;101180.13;5071006;28;20056;-67
2023/08/13 10:34:50;;;;;;;11.15;2.13;;;;;;;24.17;49.78;101181.72;5054282;28;20049;-68
2023/08/13 10:37:19;;;;;;;8.68;2.30;;;;;;;24.25;49.52;101181.34;5052111;28;20056;-68
2023/08/13 10:40:03;;;;;;;7.05;1.95;;;;;;;24.32;49.96;101172.16;5053398;28;20476;-68
2023/08/13 10:42:32;;;;;;;13.70;2.63;;;;;;;24.21;49.91;101163.66;5052084;28;20053;-67
2023/08/13 10:45:03;;;;;;;11.57;2.20;;;;;;;24.27;49.30;101170.50;5052232;28;20064;-68
2023/08/13 10:47:49;;;;;;;11.73;2.40;;;;;;;24.48;49.08;101175.41;5053266;28;20052;-68
2023/08/13 10:50:22;;;;;;;9.52;2.15;;;;;;;24.63;48.48;101173.47;5051845;28;20052;-69
2023/08/13 10:53:13;;;;;;;12.50;2.50;;;;;;;24.34;49.27;101169.72;5047795;28;20045;-68
2023/08/13 10:55:42;;;;;;;9.73;2.03;;;;;;;24.16;49.84;101168.84;5052083;28;20068;-68
2023/08/13 10:58:29;;;;;;;10.35;2.47;;;;;;;24.38;49.39;101167.75;5052311;28;20048;-67
2023/08/13 11:00:59;;;;;;;9.95;2.55;;;;;;;24.78;48.15;101161.06;5052971;28;20112;-69
2023/08/13 11:03:31;;;;;;;10.27;2.65;;;;;;;24.57;48.24;101166.59;5035694;28;20060;-68
2023/08/13 11:06:01;;;;;;;11.07;2.85;;;;;;;24.30;48.99;101155.63;5053000;28;20734;-68
2023/08/13 11:08:31;;;;;;;10.80;2.92;;;;;;;24.49;49.22;101158.16;5051547;28;20052;-69
2023/08/13 11:11:03;;;;;;;8.75;2.33;;;;;;;24.51;49.22;101161.34;5035524;28;20085;-67
2023/08/13 11:13:34;;;;;;;10.13;1.92;;;;;;;24.65;48.25;101159.81;5033266;28;20046;-69
2023/08/13 11:16:01;;;;;;;8.73;2.00;;;;;;;24.74;47.62;101154.63;5034991;28;20050;-68
2023/08/13 11:18:28;;;;;;;9.80;2.33;;;;;;;24.49;47.70;101152.53;5036069;28;20061;-68
2023/08/13 11:20:56;;;;;;;10.95;2.33;;;;;;;24.50;47.66;101151.31;5054257;28;20049;-67
2023/08/13 11:23:25;;;;;;;7.22;2.00;;;;;;;24.46;48.31;101144.84;5059734;28;20041;-70
2023/08/13 11:25:52;;;;;;;5.38;1.83;;;;;;;24.44;48.10;101147.25;5055324;28;20048;-68
2023/08/13 11:28:26;;;;;;;13.80;2.35;;;;;;;24.74;46.80;101144.16;5054796;28;20037;-68